sensor_id;sensor_type;location;lat;lon;timestamp;P1;durP1;ratioP1;P2;durP2;ratioP2
24159;SDS011;62385;41.594;23.808;2023-07-08T00:00:46;3.78;;;2.33;;
24159;SDS011;62385;41.594;23.808;2023-07-08T00:03:14;6.63;;;3.30;;
24159;SDS011;62385;41.594;23.808;2023-07-08T00:05:40;4.22;;;2.72;;
24159;SDS011;62385;41.594;23.808;2023-07-08T00:08:08;3.85;;;2.67;;
24159;SDS011;62385;41.594;23.808;2023-07-08T00:10:37;3.33;;;2.53;;
24159;SDS011;62385;41.594;23.808;2023-07-08T00:13:03;4.38;;;2.75;;
24159;SDS011;62385;41.594;23.808;2023-07-08T00:15:29;4.93;;;2.83;;
24159;SDS011;62385;41.594;23.808;2023-07-08T00:17:57;3.50;;;2.88;;
24159;SDS011;62385;41.594;23.808;2023-07-08T00:20:33;4.25;;;3.13;;
24159;SDS011;62385;41.594;23.808;2023-07-08T00:23:02;3.55;;;2.92;;
24159;SDS011;62385;41.594;23.808;2023-07-08T00:25:28;4.60;;;2.88;;
24159;SDS011;62385;41.594;23.808;2023-07-08T00:27:56;4.72;;;3.17;;
24159;SDS011;62385;41.594;23.808;2023-07-08T00:32:48;4.25;;;2.55;;
24159;SDS011;62385;41.594;23.808;2023-07-08T00:35:22;5.63;;;3.53;;
24159;SDS011;62385;41.594;23.808;2023-07-08T00:37:53;4.68;;;3.25;;
24159;SDS011;62385;41.594;23.808;2023-07-08T00:40:27;6.28;;;3.42;;
24159;SDS011;62385;41.594;23.808;2023-07-08T00:42:54;5.10;;;3.65;;
24159;SDS011;62385;41.594;23.808;2023-07-08T00:45:29;4.43;;;3.10;;
24159;SDS011;62385;41.594;23.808;2023-07-08T00:50:49;4.88;;;3.30;;
24159;SDS011;62385;41.594;23.808;2023-07-08T00:53:25;4.65;;;3.35;;
24159;SDS011;62385;41.594;23.808;2023-07-08T00:58:31;3.58;;;2.92;;
24159;SDS011;62385;41.594;23.808;2023-07-08T01:00:59;4.10;;;2.95;;
24159;SDS011;62385;41.594;23.808;2023-07-08T01:03:26;3.83;;;2.92;;
24159;SDS011;62385;41.594;23.808;2023-07-08T01:05:54;4.15;;;3.53;;
24159;SDS011;62385;41.594;23.808;2023-07-08T01:08:25;5.32;;;3.30;;
24159;SDS011;62385;41.594;23.808;2023-07-08T01:10:54;4.57;;;3.35;;
24159;SDS011;62385;41.594;23.808;2023-07-08T01:13:26;4.38;;;3.42;;
24159;SDS011;62385;41.594;23.808;2023-07-08T01:15:56;6.43;;;2.60;;
24159;SDS011;62385;41.594;23.808;2023-07-08T01:18:23;5.20;;;3.00;;
24159;SDS011;62385;41.594;23.808;2023-07-08T01:20:50;3.65;;;2.75;;
24159;SDS011;62385;41.594;23.808;2023-07-08T01:23:16;4.55;;;2.97;;
24159;SDS011;62385;41.594;23.808;2023-07-08T01:25:44;4.85;;;3.30;;
24159;SDS011;62385;41.594;23.808;2023-07-08T01:28:10;3.80;;;2.60;;
24159;SDS011;62385;41.594;23.808;2023-07-08T01:30:37;5.50;;;3.30;;
24159;SDS011;62385;41.594;23.808;2023-07-08T01:33:05;5.10;;;2.58;;
24159;SDS011;62385;41.594;23.808;2023-07-08T01:35:37;2.35;;;2.15;;
24159;SDS011;62385;41.594;23.808;2023-07-08T01:38:05;3.33;;;2.38;;
24159;SDS011;62385;41.594;23.808;2023-07-08T01:40:35;4.25;;;2.70;;
24159;SDS011;62385;41.594;23.808;2023-07-08T01:43:02;7.68;;;3.63;;
24159;SDS011;62385;41.594;23.808;2023-07-08T01:45:33;3.17;;;2.45;;
24159;SDS011;62385;41.594;23.808;2023-07-08T01:48:04;3.60;;;2.60;;
24159;SDS011;62385;41.594;23.808;2023-07-08T01:50:32;4.65;;;3.33;;
24159;SDS011;62385;41.594;23.808;2023-07-08T01:53:06;3.85;;;2.47;;
24159;SDS011;62385;41.594;23.808;2023-07-08T01:55:36;3.13;;;2.60;;
24159;SDS011;62385;41.594;23.808;2023-07-08T01:58:01;4.35;;;2.90;;
24159;SDS011;62385;41.594;23.808;2023-07-08T02:00:27;3.63;;;2.70;;
24159;SDS011;62385;41.594;23.808;2023-07-08T02:02:53;5.88;;;2.53;;
24159;SDS011;62385;41.594;23.808;2023-07-08T02:05:19;5.20;;;2.15;;
24159;SDS011;62385;41.594;23.808;2023-07-08T02:07:44;4.07;;;2.67;;
24159;SDS011;62385;41.594;23.808;2023-07-08T02:10:11;3.38;;;2.22;;
24159;SDS011;62385;41.594;23.808;2023-07-08T02:12:36;3.28;;;2.80;;
24159;SDS011;62385;41.594;23.808;2023-07-08T02:15:02;6.90;;;3.70;;
24159;SDS011;62385;41.594;23.808;2023-07-08T02:17:28;6.22;;;4.38;;
24159;SDS011;62385;41.594;23.808;2023-07-08T02:19:55;5.32;;;3.30;;
24159;SDS011;62385;41.594;23.808;2023-07-08T02:22:21;5.47;;;3.58;;
24159;SDS011;62385;41.594;23.808;2023-07-08T02:24:47;3.70;;;2.60;;
24159;SDS011;62385;41.594;23.808;2023-07-08T02:27:14;6.15;;;3.50;;
24159;SDS011;62385;41.594;23.808;2023-07-08T02:29:40;3.70;;;2.75;;
24159;SDS011;62385;41.594;23.808;2023-07-08T02:32:06;5.68;;;2.67;;
24159;SDS011;62385;41.594;23.808;2023-07-08T02:34:32;3.40;;;2.72;;
24159;SDS011;62385;41.594;23.808;2023-07-08T02:36:58;4.20;;;2.38;;
24159;SDS011;62385;41.594;23.808;2023-07-08T02:39:23;3.05;;;2.30;;
24159;SDS011;62385;41.594;23.808;2023-07-08T02:41:49;2.80;;;2.50;;
24159;SDS011;62385;41.594;23.808;2023-07-08T02:44:14;4.32;;;2.95;;
24159;SDS011;62385;41.594;23.808;2023-07-08T02:46:40;4.25;;;3.10;;
24159;SDS011;62385;41.594;23.808;2023-07-08T02:49:06;4.38;;;3.58;;
24159;SDS011;62385;41.594;23.808;2023-07-08T02:51:32;6.18;;;3.38;;
24159;SDS011;62385;41.594;23.808;2023-07-08T02:53:59;5.00;;;3.00;;
24159;SDS011;62385;41.594;23.808;2023-07-08T02:56:24;3.25;;;2.35;;
24159;SDS011;62385;41.594;23.808;2023-07-08T02:58:52;3.45;;;2.75;;
24159;SDS011;62385;41.594;23.808;2023-07-08T03:01:18;6.00;;;2.67;;
24159;SDS011;62385;41.594;23.808;2023-07-08T03:03:47;4.25;;;3.08;;
24159;SDS011;62385;41.594;23.808;2023-07-08T03:06:13;3.53;;;2.47;;
24159;SDS011;62385;41.594;23.808;2023-07-08T03:08:39;2.47;;;2.08;;
24159;SDS011;62385;41.594;23.808;2023-07-08T03:11:06;3.47;;;2.38;;
24159;SDS011;62385;41.594;23.808;2023-07-08T03:13:33;5.65;;;3.10;;
24159;SDS011;62385;41.594;23.808;2023-07-08T03:16:00;5.15;;;2.97;;
24159;SDS011;62385;41.594;23.808;2023-07-08T03:18:29;4.40;;;2.95;;
24159;SDS011;62385;41.594;23.808;2023-07-08T03:20:55;5.25;;;2.88;;
24159;SDS011;62385;41.594;23.808;2023-07-08T03:23:23;8.43;;;3.65;;
24159;SDS011;62385;41.594;23.808;2023-07-08T03:25:51;4.82;;;3.03;;
24159;SDS011;62385;41.594;23.808;2023-07-08T03:28:18;6.68;;;3.78;;
24159;SDS011;62385;41.594;23.808;2023-07-08T03:30:44;4.60;;;3.30;;
24159;SDS011;62385;41.594;23.808;2023-07-08T03:33:11;5.10;;;3.05;;
24159;SDS011;62385;41.594;23.808;2023-07-08T03:35:39;3.92;;;2.90;;
24159;SDS011;62385;41.594;23.808;2023-07-08T03:38:05;4.57;;;2.67;;
24159;SDS011;62385;41.594;23.808;2023-07-08T03:40:31;4.80;;;2.80;;
24159;SDS011;62385;41.594;23.808;2023-07-08T03:42:56;3.63;;;2.47;;
24159;SDS011;62385;41.594;23.808;2023-07-08T03:45:25;5.70;;;2.80;;
24159;SDS011;62385;41.594;23.808;2023-07-08T03:47:51;4.57;;;3.22;;
24159;SDS011;62385;41.594;23.808;2023-07-08T03:50:22;4.30;;;3.05;;
24159;SDS011;62385;41.594;23.808;2023-07-08T03:52:50;3.47;;;2.35;;
24159;SDS011;62385;41.594;23.808;2023-07-08T03:55:20;9.35;;;3.00;;
24159;SDS011;62385;41.594;23.808;2023-07-08T03:57:46;4.20;;;2.85;;
24159;SDS011;62385;41.594;23.808;2023-07-08T04:00:12;4.90;;;3.38;;
24159;SDS011;62385;41.594;23.808;2023-07-08T04:02:39;4.03;;;2.65;;
24159;SDS011;62385;41.594;23.808;2023-07-08T04:05:16;4.30;;;3.20;;
24159;SDS011;62385;41.594;23.808;2023-07-08T04:07:44;5.03;;;2.70;;
24159;SDS011;62385;41.594;23.808;2023-07-08T04:10:10;4.65;;;2.58;;
24159;SDS011;62385;41.594;23.808;2023-07-08T04:12:36;3.92;;;2.95;;
24159;SDS011;62385;41.594;23.808;2023-07-08T04:15:03;2.83;;;2.55;;
24159;SDS011;62385;41.594;23.808;2023-07-08T04:17:29;5.60;;;2.65;;
24159;SDS011;62385;41.594;23.808;2023-07-08T04:19:55;3.08;;;2.40;;
24159;SDS011;62385;41.594;23.808;2023-07-08T04:22:50;4.53;;;3.10;;
24159;SDS011;62385;41.594;23.808;2023-07-08T04:25:15;3.13;;;2.08;;
24159;SDS011;62385;41.594;23.808;2023-07-08T04:27:43;4.93;;;3.03;;
24159;SDS011;62385;41.594;23.808;2023-07-08T04:30:13;4.53;;;3.10;;
24159;SDS011;62385;41.594;23.808;2023-07-08T04:32:49;3.75;;;2.67;;
24159;SDS011;62385;41.594;23.808;2023-07-08T04:35:15;4.32;;;2.90;;
24159;SDS011;62385;41.594;23.808;2023-07-08T04:37:41;4.82;;;3.03;;
24159;SDS011;62385;41.594;23.808;2023-07-08T04:40:11;4.63;;;2.97;;
24159;SDS011;62385;41.594;23.808;2023-07-08T04:42:44;4.55;;;2.70;;
24159;SDS011;62385;41.594;23.808;2023-07-08T04:45:13;3.60;;;2.53;;
24159;SDS011;62385;41.594;23.808;2023-07-08T04:47:39;5.28;;;3.30;;
24159;SDS011;62385;41.594;23.808;2023-07-08T04:50:05;3.92;;;3.25;;
24159;SDS011;62385;41.594;23.808;2023-07-08T04:52:31;6.57;;;3.42;;
24159;SDS011;62385;41.594;23.808;2023-07-08T04:54:57;4.72;;;3.17;;
24159;SDS011;62385;41.594;23.808;2023-07-08T04:57:22;6.57;;;4.20;;
24159;SDS011;62385;41.594;23.808;2023-07-08T04:59:48;4.97;;;3.33;;
24159;SDS011;62385;41.594;23.808;2023-07-08T05:02:14;4.15;;;3.38;;
24159;SDS011;62385;41.594;23.808;2023-07-08T05:04:39;6.38;;;3.63;;
24159;SDS011;62385;41.594;23.808;2023-07-08T05:07:05;6.75;;;4.20;;
24159;SDS011;62385;41.594;23.808;2023-07-08T05:09:30;3.65;;;3.13;;
24159;SDS011;62385;41.594;23.808;2023-07-08T05:11:57;4.95;;;3.22;;
24159;SDS011;62385;41.594;23.808;2023-07-08T05:14:22;4.30;;;3.28;;
24159;SDS011;62385;41.594;23.808;2023-07-08T05:16:48;4.13;;;2.92;;
24159;SDS011;62385;41.594;23.808;2023-07-08T05:19:14;5.63;;;3.50;;
24159;SDS011;62385;41.594;23.808;2023-07-08T05:21:41;4.30;;;3.03;;
24159;SDS011;62385;41.594;23.808;2023-07-08T05:24:06;4.47;;;2.78;;
24159;SDS011;62385;41.594;23.808;2023-07-08T05:26:32;7.25;;;3.05;;
24159;SDS011;62385;41.594;23.808;2023-07-08T05:28:58;4.53;;;3.17;;
24159;SDS011;62385;41.594;23.808;2023-07-08T05:31:24;4.57;;;3.35;;
24159;SDS011;62385;41.594;23.808;2023-07-08T05:33:49;6.57;;;4.05;;
24159;SDS011;62385;41.594;23.808;2023-07-08T05:36:15;3.97;;;3.03;;
24159;SDS011;62385;41.594;23.808;2023-07-08T05:38:41;3.28;;;2.63;;
24159;SDS011;62385;41.594;23.808;2023-07-08T05:41:07;6.55;;;3.70;;
24159;SDS011;62385;41.594;23.808;2023-07-08T05:43:32;3.20;;;2.55;;
24159;SDS011;62385;41.594;23.808;2023-07-08T05:45:59;4.35;;;3.35;;
24159;SDS011;62385;41.594;23.808;2023-07-08T05:48:25;5.10;;;3.70;;
24159;SDS011;62385;41.594;23.808;2023-07-08T05:50:51;4.75;;;3.67;;
24159;SDS011;62385;41.594;23.808;2023-07-08T05:53:18;3.25;;;2.60;;
24159;SDS011;62385;41.594;23.808;2023-07-08T05:55:44;4.15;;;2.58;;
24159;SDS011;62385;41.594;23.808;2023-07-08T05:58:10;4.50;;;3.47;;
24159;SDS011;62385;41.594;23.808;2023-07-08T06:00:37;5.97;;;3.58;;
24159;SDS011;62385;41.594;23.808;2023-07-08T06:03:02;4.47;;;3.45;;
24159;SDS011;62385;41.594;23.808;2023-07-08T06:05:28;3.85;;;3.05;;
24159;SDS011;62385;41.594;23.808;2023-07-08T06:07:54;9.25;;;4.03;;
24159;SDS011;62385;41.594;23.808;2023-07-08T06:10:20;5.38;;;3.45;;
24159;SDS011;62385;41.594;23.808;2023-07-08T06:12:45;4.70;;;3.75;;
24159;SDS011;62385;41.594;23.808;2023-07-08T06:15:11;6.88;;;3.35;;
24159;SDS011;62385;41.594;23.808;2023-07-08T06:17:37;3.40;;;2.80;;
24159;SDS011;62385;41.594;23.808;2023-07-08T06:20:04;4.70;;;3.30;;
24159;SDS011;62385;41.594;23.808;2023-07-08T06:22:29;8.15;;;4.15;;
24159;SDS011;62385;41.594;23.808;2023-07-08T06:24:55;4.00;;;2.90;;
24159;SDS011;62385;41.594;23.808;2023-07-08T06:27:21;4.20;;;3.13;;
24159;SDS011;62385;41.594;23.808;2023-07-08T06:29:46;4.82;;;3.88;;
24159;SDS011;62385;41.594;23.808;2023-07-08T06:32:14;4.78;;;3.58;;
24159;SDS011;62385;41.594;23.808;2023-07-08T06:34:39;4.57;;;3.28;;
24159;SDS011;62385;41.594;23.808;2023-07-08T06:37:05;5.00;;;3.53;;
24159;SDS011;62385;41.594;23.808;2023-07-08T06:39:31;5.03;;;3.63;;
24159;SDS011;62385;41.594;23.808;2023-07-08T06:41:57;4.97;;;3.42;;
24159;SDS011;62385;41.594;23.808;2023-07-08T06:44:28;4.05;;;3.30;;
24159;SDS011;62385;41.594;23.808;2023-07-08T06:46:54;4.55;;;3.75;;
24159;SDS011;62385;41.594;23.808;2023-07-08T06:49:20;4.28;;;3.10;;
24159;SDS011;62385;41.594;23.808;2023-07-08T06:51:46;3.97;;;2.85;;
24159;SDS011;62385;41.594;23.808;2023-07-08T06:54:11;3.95;;;3.40;;
24159;SDS011;62385;41.594;23.808;2023-07-08T06:56:41;8.02;;;3.50;;
24159;SDS011;62385;41.594;23.808;2023-07-08T06:59:07;5.43;;;3.30;;
24159;SDS011;62385;41.594;23.808;2023-07-08T07:01:33;4.63;;;3.25;;
24159;SDS011;62385;41.594;23.808;2023-07-08T07:03:59;4.22;;;3.05;;
24159;SDS011;62385;41.594;23.808;2023-07-08T07:06:26;3.13;;;2.80;;
24159;SDS011;62385;41.594;23.808;2023-07-08T07:08:52;4.35;;;2.90;;
24159;SDS011;62385;41.594;23.808;2023-07-08T07:11:19;5.90;;;3.53;;
24159;SDS011;62385;41.594;23.808;2023-07-08T07:13:45;5.18;;;3.03;;
24159;SDS011;62385;41.594;23.808;2023-07-08T07:16:12;4.13;;;3.67;;
24159;SDS011;62385;41.594;23.808;2023-07-08T07:18:37;4.93;;;3.70;;
24159;SDS011;62385;41.594;23.808;2023-07-08T07:21:03;5.60;;;3.20;;
24159;SDS011;62385;41.594;23.808;2023-07-08T07:23:29;7.00;;;3.15;;
24159;SDS011;62385;41.594;23.808;2023-07-08T07:25:55;4.38;;;3.05;;
24159;SDS011;62385;41.594;23.808;2023-07-08T07:28:20;3.17;;;2.55;;
24159;SDS011;62385;41.594;23.808;2023-07-08T07:30:46;3.03;;;2.55;;
24159;SDS011;62385;41.594;23.808;2023-07-08T07:33:12;3.78;;;2.90;;
24159;SDS011;62385;41.594;23.808;2023-07-08T07:35:45;4.50;;;3.17;;
24159;SDS011;62385;41.594;23.808;2023-07-08T07:38:11;3.58;;;2.60;;
24159;SDS011;62385;41.594;23.808;2023-07-08T07:40:38;3.95;;;3.03;;
24159;SDS011;62385;41.594;23.808;2023-07-08T07:43:06;5.05;;;3.85;;
24159;SDS011;62385;41.594;23.808;2023-07-08T07:45:31;7.35;;;2.90;;
24159;SDS011;62385;41.594;23.808;2023-07-08T07:47:58;4.72;;;3.05;;
24159;SDS011;62385;41.594;23.808;2023-07-08T07:50:23;3.63;;;2.83;;
24159;SDS011;62385;41.594;23.808;2023-07-08T07:52:51;3.92;;;2.83;;
24159;SDS011;62385;41.594;23.808;2023-07-08T07:55:16;6.00;;;3.58;;
24159;SDS011;62385;41.594;23.808;2023-07-08T07:57:43;4.85;;;3.03;;
24159;SDS011;62385;41.594;23.808;2023-07-08T08:00:11;4.63;;;3.10;;
24159;SDS011;62385;41.594;23.808;2023-07-08T08:02:39;4.07;;;2.97;;
24159;SDS011;62385;41.594;23.808;2023-07-08T08:05:05;2.95;;;2.28;;
24159;SDS011;62385;41.594;23.808;2023-07-08T08:07:31;3.05;;;2.13;;
24159;SDS011;62385;41.594;23.808;2023-07-08T08:09:57;2.55;;;2.13;;
24159;SDS011;62385;41.594;23.808;2023-07-08T08:12:22;3.83;;;2.70;;
24159;SDS011;62385;41.594;23.808;2023-07-08T08:14:50;4.07;;;2.47;;
24159;SDS011;62385;41.594;23.808;2023-07-08T08:17:16;4.15;;;2.75;;
24159;SDS011;62385;41.594;23.808;2023-07-08T08:19:42;2.97;;;2.45;;
24159;SDS011;62385;41.594;23.808;2023-07-08T08:22:08;2.63;;;2.10;;
24159;SDS011;62385;41.594;23.808;2023-07-08T08:24:34;3.45;;;2.15;;
24159;SDS011;62385;41.594;23.808;2023-07-08T08:26:59;4.25;;;2.22;;
24159;SDS011;62385;41.594;23.808;2023-07-08T08:29:25;1.83;;;1.67;;
24159;SDS011;62385;41.594;23.808;2023-07-08T08:31:51;3.17;;;2.55;;
24159;SDS011;62385;41.594;23.808;2023-07-08T08:34:17;2.92;;;1.98;;
24159;SDS011;62385;41.594;23.808;2023-07-08T08:36:43;4.07;;;1.70;;
24159;SDS011;62385;41.594;23.808;2023-07-08T08:39:08;2.28;;;1.85;;
24159;SDS011;62385;41.594;23.808;2023-07-08T08:41:35;2.45;;;1.67;;
24159;SDS011;62385;41.594;23.808;2023-07-08T08:44:03;2.33;;;1.92;;
24159;SDS011;62385;41.594;23.808;2023-07-08T08:46:51;1.65;;;1.40;;
24159;SDS011;62385;41.594;23.808;2023-07-08T08:49:27;2.10;;;1.67;;
24159;SDS011;62385;41.594;23.808;2023-07-08T08:51:58;2.80;;;1.75;;
24159;SDS011;62385;41.594;23.808;2023-07-08T08:54:24;3.08;;;2.10;;
24159;SDS011;62385;41.594;23.808;2023-07-08T08:59:50;2.35;;;1.48;;
24159;SDS011;62385;41.594;23.808;2023-07-08T09:02:28;4.40;;;2.25;;
24159;SDS011;62385;41.594;23.808;2023-07-08T09:05:02;2.08;;;1.52;;
24159;SDS011;62385;41.594;23.808;2023-07-08T09:07:30;2.28;;;1.65;;
24159;SDS011;62385;41.594;23.808;2023-07-08T09:12:54;2.90;;;1.95;;
24159;SDS011;62385;41.594;23.808;2023-07-08T09:15:22;2.30;;;1.85;;
24159;SDS011;62385;41.594;23.808;2023-07-08T09:17:47;2.25;;;1.40;;
24159;SDS011;62385;41.594;23.808;2023-07-08T09:20:24;6.30;;;1.90;;
24159;SDS011;62385;41.594;23.808;2023-07-08T09:26:01;1.08;;;0.88;;
24159;SDS011;62385;41.594;23.808;2023-07-08T09:31:19;2.90;;;1.30;;
24159;SDS011;62385;41.594;23.808;2023-07-08T09:33:54;5.03;;;1.50;;
24159;SDS011;62385;41.594;23.808;2023-07-08T09:36:32;2.40;;;1.65;;
24159;SDS011;62385;41.594;23.808;2023-07-08T09:38:57;3.25;;;2.15;;
24159;SDS011;62385;41.594;23.808;2023-07-08T09:41:32;4.28;;;1.48;;
24159;SDS011;62385;41.594;23.808;2023-07-08T09:46:52;5.00;;;1.67;;
24159;SDS011;62385;41.594;23.808;2023-07-08T09:51:50;2.28;;;1.38;;
24159;SDS011;62385;41.594;23.808;2023-07-08T09:54:17;3.63;;;1.60;;
24159;SDS011;62385;41.594;23.808;2023-07-08T09:56:54;2.60;;;1.48;;
24159;SDS011;62385;41.594;23.808;2023-07-08T09:59:27;1.15;;;1.05;;
24159;SDS011;62385;41.594;23.808;2023-07-08T10:02:02;1.88;;;1.63;;
24159;SDS011;62385;41.594;23.808;2023-07-08T10:04:54;1.90;;;1.48;;
24159;SDS011;62385;41.594;23.808;2023-07-08T10:07:22;1.98;;;1.35;;
24159;SDS011;62385;41.594;23.808;2023-07-08T10:09:51;1.75;;;1.48;;
24159;SDS011;62385;41.594;23.808;2023-07-08T10:12:40;3.15;;;1.65;;
24159;SDS011;62385;41.594;23.808;2023-07-08T10:15:14;1.48;;;1.38;;
24159;SDS011;62385;41.594;23.808;2023-07-08T10:17:47;1.67;;;1.40;;
24159;SDS011;62385;41.594;23.808;2023-07-08T10:20:13;2.33;;;1.45;;
24159;SDS011;62385;41.594;23.808;2023-07-08T10:25:35;1.90;;;1.20;;
24159;SDS011;62385;41.594;23.808;2023-07-08T10:30:55;3.30;;;1.83;;
24159;SDS011;62385;41.594;23.808;2023-07-08T10:33:40;2.40;;;1.70;;
24159;SDS011;62385;41.594;23.808;2023-07-08T10:44:58;2.20;;;1.45;;
24159;SDS011;62385;41.594;23.808;2023-07-08T10:46:57;2.28;;;1.75;;
24159;SDS011;62385;41.594;23.808;2023-07-08T10:49:57;1.90;;;1.45;;
24159;SDS011;62385;41.594;23.808;2023-07-08T10:52:30;1.52;;;1.40;;
24159;SDS011;62385;41.594;23.808;2023-07-08T11:08:59;2.35;;;1.48;;
24159;SDS011;62385;41.594;23.808;2023-07-08T11:11:34;1.70;;;1.25;;
24159;SDS011;62385;41.594;23.808;2023-07-08T11:14:19;2.55;;;1.52;;
24159;SDS011;62385;41.594;23.808;2023-07-08T11:17:14;3.38;;;1.52;;
24159;SDS011;62385;41.594;23.808;2023-07-08T11:20:01;2.95;;;1.77;;
24159;SDS011;62385;41.594;23.808;2023-07-08T11:22:41;2.55;;;1.55;;
24159;SDS011;62385;41.594;23.808;2023-07-08T11:25:18;3.88;;;1.65;;
24159;SDS011;62385;41.594;23.808;2023-07-08T11:27:47;2.22;;;1.33;;
24159;SDS011;62385;41.594;23.808;2023-07-08T11:30:20;1.63;;;1.33;;
24159;SDS011;62385;41.594;23.808;2023-07-08T11:32:54;2.63;;;1.70;;
24159;SDS011;62385;41.594;23.808;2023-07-08T11:35:32;2.72;;;1.70;;
24159;SDS011;62385;41.594;23.808;2023-07-08T11:38:01;1.60;;;1.42;;
24159;SDS011;62385;41.594;23.808;2023-07-08T11:40:28;2.78;;;1.40;;
24159;SDS011;62385;41.594;23.808;2023-07-08T11:43:03;3.13;;;1.90;;
24159;SDS011;62385;41.594;23.808;2023-07-08T11:48:04;2.28;;;1.83;;
24159;SDS011;62385;41.594;23.808;2023-07-08T11:50:31;2.40;;;1.55;;
24159;SDS011;62385;41.594;23.808;2023-07-08T11:53:03;1.83;;;1.20;;
24159;SDS011;62385;41.594;23.808;2023-07-08T11:55:38;3.20;;;1.75;;
24159;SDS011;62385;41.594;23.808;2023-07-08T11:58:23;1.95;;;1.45;;
24159;SDS011;62385;41.594;23.808;2023-07-08T12:08:53;2.42;;;1.65;;
24159;SDS011;62385;41.594;23.808;2023-07-08T12:11:23;2.70;;;1.95;;
24159;SDS011;62385;41.594;23.808;2023-07-08T12:13:57;2.35;;;1.35;;
24159;SDS011;62385;41.594;23.808;2023-07-08T12:16:25;1.65;;;1.50;;
24159;SDS011;62385;41.594;23.808;2023-07-08T12:18:52;1.70;;;1.20;;
24159;SDS011;62385;41.594;23.808;2023-07-08T12:21:21;1.40;;;1.15;;
24159;SDS011;62385;41.594;23.808;2023-07-08T12:23:48;2.53;;;1.52;;
24159;SDS011;62385;41.594;23.808;2023-07-08T12:26:14;1.92;;;1.63;;
24159;SDS011;62385;41.594;23.808;2023-07-08T12:28:40;1.40;;;1.17;;
24159;SDS011;62385;41.594;23.808;2023-07-08T12:31:17;1.75;;;1.40;;
24159;SDS011;62385;41.594;23.808;2023-07-08T12:33:45;1.88;;;1.33;;
24159;SDS011;62385;41.594;23.808;2023-07-08T12:36:13;2.35;;;1.52;;
24159;SDS011;62385;41.594;23.808;2023-07-08T12:38:44;1.98;;;1.77;;
24159;SDS011;62385;41.594;23.808;2023-07-08T12:41:11;2.55;;;1.80;;
24159;SDS011;62385;41.594;23.808;2023-07-08T12:43:46;3.60;;;2.00;;
24159;SDS011;62385;41.594;23.808;2023-07-08T12:46:14;1.70;;;1.58;;
24159;SDS011;62385;41.594;23.808;2023-07-08T12:48:40;3.25;;;1.90;;
24159;SDS011;62385;41.594;23.808;2023-07-08T12:51:09;1.92;;;1.48;;
24159;SDS011;62385;41.594;23.808;2023-07-08T12:53:42;1.65;;;1.42;;
24159;SDS011;62385;41.594;23.808;2023-07-08T12:56:08;2.75;;;1.48;;
24159;SDS011;62385;41.594;23.808;2023-07-08T12:58:38;2.60;;;1.65;;
24159;SDS011;62385;41.594;23.808;2023-07-08T13:01:07;2.55;;;1.50;;
24159;SDS011;62385;41.594;23.808;2023-07-08T13:03:35;2.42;;;1.45;;
24159;SDS011;62385;41.594;23.808;2023-07-08T13:06:05;2.00;;;1.20;;
24159;SDS011;62385;41.594;23.808;2023-07-08T13:08:35;2.22;;;1.45;;
24159;SDS011;62385;41.594;23.808;2023-07-08T13:11:04;1.77;;;1.38;;
24159;SDS011;62385;41.594;23.808;2023-07-08T13:13:33;3.05;;;2.10;;
24159;SDS011;62385;41.594;23.808;2023-07-08T13:16:08;2.78;;;1.85;;
24159;SDS011;62385;41.594;23.808;2023-07-08T13:18:36;2.95;;;1.73;;
24159;SDS011;62385;41.594;23.808;2023-07-08T13:21:04;2.03;;;1.80;;
24159;SDS011;62385;41.594;23.808;2023-07-08T13:23:34;1.60;;;1.50;;
24159;SDS011;62385;41.594;23.808;2023-07-08T13:26:00;3.83;;;2.13;;
24159;SDS011;62385;41.594;23.808;2023-07-08T13:28:37;3.22;;;2.50;;
24159;SDS011;62385;41.594;23.808;2023-07-08T13:31:19;2.05;;;1.85;;
24159;SDS011;62385;41.594;23.808;2023-07-08T13:33:48;2.75;;;1.98;;
24159;SDS011;62385;41.594;23.808;2023-07-08T13:36:21;2.50;;;1.95;;
24159;SDS011;62385;41.594;23.808;2023-07-08T13:38:59;2.45;;;1.70;;
24159;SDS011;62385;41.594;23.808;2023-07-08T13:41:29;2.05;;;1.60;;
24159;SDS011;62385;41.594;23.808;2023-07-08T13:43:54;2.45;;;1.45;;
24159;SDS011;62385;41.594;23.808;2023-07-08T13:49:09;5.35;;;3.63;;
24159;SDS011;62385;41.594;23.808;2023-07-08T13:51:41;2.35;;;1.65;;
24159;SDS011;62385;41.594;23.808;2023-07-08T13:54:15;2.00;;;1.52;;
24159;SDS011;62385;41.594;23.808;2023-07-08T13:56:46;3.03;;;1.55;;
24159;SDS011;62385;41.594;23.808;2023-07-08T13:59:15;2.38;;;1.33;;
24159;SDS011;62385;41.594;23.808;2023-07-08T14:01:47;1.45;;;1.20;;
24159;SDS011;62385;41.594;23.808;2023-07-08T14:04:15;1.88;;;1.38;;
24159;SDS011;62385;41.594;23.808;2023-07-08T14:06:43;1.50;;;1.08;;
24159;SDS011;62385;41.594;23.808;2023-07-08T14:09:17;2.42;;;1.30;;
24159;SDS011;62385;41.594;23.808;2023-07-08T14:11:48;1.70;;;1.20;;
24159;SDS011;62385;41.594;23.808;2023-07-08T14:14:16;1.00;;;0.90;;
24159;SDS011;62385;41.594;23.808;2023-07-08T14:16:47;1.58;;;1.05;;
24159;SDS011;62385;41.594;23.808;2023-07-08T14:19:21;5.20;;;1.70;;
24159;SDS011;62385;41.594;23.808;2023-07-08T14:21:59;1.52;;;1.35;;
24159;SDS011;62385;41.594;23.808;2023-07-08T14:24:42;1.33;;;1.23;;
24159;SDS011;62385;41.594;23.808;2023-07-08T14:27:11;1.23;;;0.98;;
24159;SDS011;62385;41.594;23.808;2023-07-08T14:29:42;1.17;;;1.00;;
24159;SDS011;62385;41.594;23.808;2023-07-08T14:32:30;2.60;;;1.42;;
24159;SDS011;62385;41.594;23.808;2023-07-08T14:34:56;0.85;;;0.80;;
24159;SDS011;62385;41.594;23.808;2023-07-08T14:37:25;4.00;;;1.20;;
24159;SDS011;62385;41.594;23.808;2023-07-08T14:39:51;1.52;;;1.20;;
24159;SDS011;62385;41.594;23.808;2023-07-08T14:42:17;3.00;;;1.20;;
24159;SDS011;62385;41.594;23.808;2023-07-08T14:44:45;2.00;;;1.05;;
24159;SDS011;62385;41.594;23.808;2023-07-08T14:47:15;1.67;;;0.93;;
24159;SDS011;62385;41.594;23.808;2023-07-08T14:49:42;1.00;;;0.88;;
24159;SDS011;62385;41.594;23.808;2023-07-08T14:52:08;2.30;;;1.38;;
24159;SDS011;62385;41.594;23.808;2023-07-08T14:54:37;1.83;;;1.15;;
24159;SDS011;62385;41.594;23.808;2023-07-08T14:57:03;1.10;;;1.00;;
24159;SDS011;62385;41.594;23.808;2023-07-08T14:59:32;1.33;;;1.10;;
24159;SDS011;62385;41.594;23.808;2023-07-08T15:02:01;0.85;;;0.75;;
24159;SDS011;62385;41.594;23.808;2023-07-08T15:04:40;1.52;;;1.27;;
24159;SDS011;62385;41.594;23.808;2023-07-08T15:07:07;2.92;;;1.33;;
24159;SDS011;62385;41.594;23.808;2023-07-08T15:09:34;1.50;;;0.93;;
24159;SDS011;62385;41.594;23.808;2023-07-08T15:12:00;1.17;;;1.02;;
24159;SDS011;62385;41.594;23.808;2023-07-08T15:14:26;2.00;;;1.30;;
24159;SDS011;62385;41.594;23.808;2023-07-08T15:16:52;1.30;;;1.20;;
24159;SDS011;62385;41.594;23.808;2023-07-08T15:19:19;1.10;;;0.93;;
24159;SDS011;62385;41.594;23.808;2023-07-08T15:21:45;1.23;;;1.13;;
24159;SDS011;62385;41.594;23.808;2023-07-08T15:24:12;1.20;;;0.95;;
24159;SDS011;62385;41.594;23.808;2023-07-08T15:26:39;2.75;;;1.52;;
24159;SDS011;62385;41.594;23.808;2023-07-08T15:29:11;1.38;;;1.20;;
24159;SDS011;62385;41.594;23.808;2023-07-08T15:31:46;3.35;;;1.40;;
24159;SDS011;62385;41.594;23.808;2023-07-08T15:34:19;1.00;;;0.80;;
24159;SDS011;62385;41.594;23.808;2023-07-08T15:36:46;1.13;;;1.02;;
24159;SDS011;62385;41.594;23.808;2023-07-08T15:39:13;2.20;;;1.67;;
24159;SDS011;62385;41.594;23.808;2023-07-08T15:41:38;1.40;;;0.90;;
24159;SDS011;62385;41.594;23.808;2023-07-08T15:44:06;1.30;;;1.10;;
24159;SDS011;62385;41.594;23.808;2023-07-08T15:46:36;1.63;;;1.00;;
24159;SDS011;62385;41.594;23.808;2023-07-08T15:49:27;1.50;;;1.20;;